Time;durP1;ratioP1;P1;durP2;ratioP2;P2;SDS_P1;SDS_P2;PMS_P1;PMS_P2;Temp;Humidity;BMP_temperature;BMP_pressure;BME280_temperature;BME280_humidity;BME280_pressure;Samples;Min_cycle;Max_cycle;Signal;HPM_P1;HPM_P2
2021/07/15 00:02:05;;;;;;;18.73;14.40;;;;;;;27.63;46.86;94962.94;5029809;28;20204;-67
2021/07/15 00:04:32;;;;;;;15.43;13.23;;;;;;;27.31;47.95;94977.78;5029912;28;20198;-67
2021/07/15 00:07:00;;;;;;;17.17;13.37;;;;;;;27.45;47.60;94969.94;5030472;28;20197;-68
2021/07/15 00:09:26;;;;;;;16.93;13.50;;;;;;;27.34;48.06;94968.22;5015647;28;20217;-69
2021/07/15 00:11:53;;;;;;;19.60;12.60;;;;;;;27.24;49.13;94971.47;5030020;28;20331;-69
2021/07/15 00:14:24;;;;;;;15.30;13.70;;;;;;;27.46;47.91;94965.34;5029825;28;20675;-69
2021/07/15 00:16:54;;;;;;;16.73;13.80;;;;;;;27.52;48.11;94977.34;5029453;28;20193;-71
2021/07/15 00:19:23;;;;;;;16.27;13.33;;;;;;;27.63;47.72;94978.31;5015814;28;20229;-65
2021/07/15 00:21:50;;;;;;;19.17;13.23;;;;;;;27.55;48.02;94968.56;5023026;28;20301;-68
2021/07/15 00:24:19;;;;;;;15.20;13.47;;;;;;;27.43;48.47;94982.97;5008857;28;20203;-67
2021/07/15 00:26:46;;;;;;;21.40;13.30;;;;;;;27.52;48.33;94977.34;5027773;28;20186;-67
2021/07/15 00:29:15;;;;;;;15.20;13.30;;;;;;;27.04;49.64;94981.50;5028959;28;20209;-68
2021/07/15 00:31:42;;;;;;;19.40;14.37;;;;;;;26.83;50.79;94981.88;5013720;28;20202;-67
2021/07/15 00:34:10;;;;;;;17.83;14.07;;;;;;;27.15;49.83;94976.31;5022094;28;20199;-70
2021/07/15 00:36:38;;;;;;;17.87;13.90;;;;;;;26.89;50.74;94985.84;5029973;28;20285;-65
2021/07/15 00:39:06;;;;;;;15.87;13.27;;;;;;;26.94;50.65;94982.88;5030069;28;20213;-67
2021/07/15 00:41:34;;;;;;;18.00;12.93;;;;;;;27.09;50.04;94983.13;5029995;28;20229;-70
2021/07/15 00:44:01;;;;;;;17.13;12.63;;;;;;;27.12;50.22;94977.03;5030579;28;20679;-68
2021/07/15 00:46:28;;;;;;;16.67;13.10;;;;;;;27.14;50.29;94985.50;5031016;28;20189;-70
2021/07/15 00:48:55;;;;;;;13.87;12.43;;;;;;;26.92;50.99;94976.28;5031139;28;20193;-71
2021/07/15 00:51:24;;;;;;;18.97;11.90;;;;;;;26.70;51.14;94956.28;5023902;28;20703;-70
2021/07/15 00:53:51;;;;;;;17.13;12.47;;;;;;;26.77;51.44;94966.38;5026033;28;20205;-68
2021/07/15 00:56:18;;;;;;;16.03;11.77;;;;;;;26.69;51.47;94970.09;5033031;28;20197;-69
2021/07/15 00:58:45;;;;;;;16.10;12.60;;;;;;;26.78;51.66;94974.13;5033048;28;20228;-67
2021/07/15 01:01:12;;;;;;;19.67;12.23;;;;;;;26.69;51.61;94965.50;5032267;28;20201;-69
2021/07/15 01:03:39;;;;;;;18.30;11.47;;;;;;;26.74;51.79;94972.50;5030715;28;20228;-67
2021/07/15 01:06:06;;;;;;;14.93;11.97;;;;;;;26.66;51.69;94971.53;5029485;28;20197;-66
2021/07/15 01:08:33;;;;;;;14.43;11.63;;;;;;;26.61;52.11;94963.75;5029283;28;20675;-69
2021/07/15 01:11:15;;;;;;;17.43;12.50;;;;;;;26.62;52.04;94959.94;5015224;28;20202;-72
2021/07/15 01:13:49;;;;;;;14.80;11.73;;;;;;;26.54;52.02;94969.00;5029223;28;20197;-71
2021/07/15 01:16:33;;;;;;;17.57;12.40;;;;;;;26.43;52.72;94972.59;5026885;28;20193;-68
2021/07/15 01:19:24;;;;;;;17.70;12.03;;;;;;;26.25;53.12;94966.88;5020162;28;20251;-75
2021/07/15 01:22:06;;;;;;;14.93;11.83;;;;;;;26.23;53.37;94960.28;5015632;28;20198;-67
2021/07/15 01:25:01;;;;;;;15.27;11.93;;;;;;;26.19;53.45;94962.91;5028435;28;20241;-66
2021/07/15 01:27:54;;;;;;;14.03;12.07;;;;;;;26.25;53.17;94961.50;5029545;28;20195;-72
2021/07/15 01:30:23;;;;;;;17.77;12.23;;;;;;;26.21;53.37;94949.91;5029390;28;20207;-67
2021/07/15 01:33:15;;;;;;;14.03;11.87;;;;;;;26.24;53.08;94959.94;5017118;28;20755;-69
2021/07/15 01:36:02;;;;;;;14.13;12.47;;;;;;;26.16;53.22;94965.50;5026493;28;20204;-67
2021/07/15 01:38:40;;;;;;;17.20;11.83;;;;;;;26.16;53.07;94958.25;5017078;28;20274;-69
2021/07/15 01:41:23;;;;;;;17.87;11.27;;;;;;;25.96;53.34;94935.16;5031056;28;20673;-68
2021/07/15 01:43:56;;;;;;;16.37;12.63;;;;;;;25.90;53.69;94933.84;5033097;28;20283;-67
2021/07/15 01:46:24;;;;;;;14.57;12.63;;;;;;;26.03;53.62;94959.47;5031311;28;20201;-67
2021/07/15 01:48:51;;;;;;;16.97;13.33;;;;;;;26.23;53.39;94958.38;5032071;28;20233;-68
2021/07/15 01:51:19;;;;;;;13.70;12.30;;;;;;;26.16;53.25;94952.88;5026329;28;20633;-71
2021/07/15 01:53:49;;;;;;;15.37;11.70;;;;;;;26.21;53.08;94965.22;5013036;28;20293;-70
2021/07/15 01:56:17;;;;;;;16.87;12.73;;;;;;;26.15;53.33;94974.72;5017325;28;20663;-70
2021/07/15 01:58:47;;;;;;;14.37;12.60;;;;;;;26.10;53.43;94958.84;5033000;28;20232;-66
2021/07/15 02:01:16;;;;;;;18.17;13.17;;;;;;;26.24;53.55;94976.03;5032223;28;20413;-69
2021/07/15 02:03:48;;;;;;;19.43;12.80;;;;;;;26.26;53.36;94968.41;5032482;28;20204;-68
2021/07/15 02:06:18;;;;;;;21.93;11.77;;;;;;;26.12;53.43;94975.41;5032536;28;20243;-68
2021/07/15 02:08:46;;;;;;;16.90;12.30;;;;;;;26.26;53.24;94968.41;5035088;28;20208;-66
2021/07/15 02:11:15;;;;;;;17.90;12.90;;;;;;;26.17;53.29;94975.91;5033793;28;20200;-70
2021/07/15 02:13:44;;;;;;;15.47;13.33;;;;;;;26.23;53.38;94971.81;5032184;28;20248;-67
2021/07/15 02:16:12;;;;;;;16.30;13.47;;;;;;;26.10;53.99;94965.00;5031431;28;20251;-67
2021/07/15 02:18:42;;;;;;;15.97;12.43;;;;;;;26.05;53.80;94967.97;5030926;28;20217;-68
2021/07/15 02:21:10;;;;;;;14.77;12.83;;;;;;;26.04;53.74;94971.78;5031716;28;20693;-69
2021/07/15 02:23:37;;;;;;;15.67;12.57;;;;;;;25.96;54.06;94967.38;5032266;28;20292;-68
2021/07/15 02:26:06;;;;;;;17.67;12.90;;;;;;;25.95;54.18;94976.53;5031787;28;20207;-70
2021/07/15 02:28:33;;;;;;;22.50;14.17;;;;;;;25.96;53.89;94964.69;5031578;28;20682;-69
2021/07/15 02:31:13;;;;;;;22.97;13.40;;;;;;;25.97;54.39;94967.00;5031859;28;20731;-71
2021/07/15 02:33:48;;;;;;;18.47;12.73;;;;;;;25.89;54.29;94977.94;5017961;28;20194;-67
2021/07/15 02:36:18;;;;;;;17.00;12.77;;;;;;;25.89;54.29;94975.28;5031450;28;20276;-68
2021/07/15 02:38:48;;;;;;;14.83;13.30;;;;;;;25.87;54.62;94970.25;5031620;28;20233;-68
2021/07/15 02:41:16;;;;;;;15.07;13.50;;;;;;;25.69;54.79;94976.34;5031005;28;20237;-70
2021/07/15 02:43:43;;;;;;;14.80;13.20;;;;;;;25.61;55.67;94974.59;5032585;28;20193;-67
2021/07/15 02:46:10;;;;;;;18.87;13.67;;;;;;;25.73;55.14;94969.16;5030492;28;20207;-71
2021/07/15 02:48:37;;;;;;;20.07;13.33;;;;;;;25.72;55.43;94964.91;5031816;28;20197;-67
2021/07/15 02:51:04;;;;;;;17.60;12.20;;;;;;;25.63;55.21;94967.00;5031261;28;20193;-69
2021/07/15 02:53:31;;;;;;;18.70;12.50;;;;;;;25.31;56.34;94946.66;5031556;28;20201;-70
2021/07/15 02:56:13;;;;;;;18.50;13.73;;;;;;;25.56;55.83;94961.47;5015626;28;20543;-68
2021/07/15 02:59:21;;;;;;;21.50;13.87;;;;;;;25.37;56.48;94961.34;5031843;28;20251;-70
2021/07/15 03:02:20;;;;;;;15.03;12.60;;;;;;;25.53;56.07;94956.78;5020308;28;20203;-69
2021/07/15 03:05:08;;;;;;;14.67;13.17;;;;;;;25.67;55.67;94962.47;5025633;28;20202;-70
2021/07/15 03:07:38;;;;;;;16.33;13.57;;;;;;;25.66;55.68;94960.91;5025506;28;20309;-69
2021/07/15 03:10:06;;;;;;;19.37;13.13;;;;;;;25.62;55.85;94968.13;5018028;28;20189;-70
2021/07/15 03:12:34;;;;;;;15.03;12.37;;;;;;;25.65;56.00;94970.09;5031349;28;20213;-70
2021/07/15 03:15:03;;;;;;;17.80;13.00;;;;;;;25.55;56.25;94970.63;5016596;28;20196;-70
2021/07/15 03:17:37;;;;;;;17.63;12.43;;;;;;;25.57;55.96;94968.38;5031241;28;20656;-68
2021/07/15 03:20:12;;;;;;;17.60;13.20;;;;;;;25.54;56.33;94971.75;5030730;28;20307;-72
2021/07/15 03:22:41;;;;;;;15.70;13.23;;;;;;;25.32;57.16;94969.66;5031850;28;20196;-67
2021/07/15 03:25:12;;;;;;;19.70;13.03;;;;;;;25.42;57.04;94977.22;5036736;28;20284;-67
2021/07/15 03:27:43;;;;;;;18.73;14.57;;;;;;;25.21;57.48;94972.06;5022747;28;20661;-71
2021/07/15 03:30:14;;;;;;;16.33;14.37;;;;;;;24.66;59.43;94972.91;5031270;28;20217;-70
2021/07/15 03:32:43;;;;;;;19.73;14.40;;;;;;;24.76;59.35;94977.78;5035524;28;20668;-69
2021/07/15 03:35:11;;;;;;;19.40;16.60;;;;;;;24.75;58.84;94973.56;5030702;28;20205;-67
2021/07/15 03:37:41;;;;;;;17.93;15.53;;;;;;;25.15;58.11;94967.28;5030933;28;20194;-68
2021/07/15 03:40:14;;;;;;;20.40;16.27;;;;;;;25.18;57.54;94972.00;5030280;28;20307;-71
2021/07/15 03:42:43;;;;;;;19.77;16.10;;;;;;;25.42;56.94;94963.81;5030372;28;20252;-73
2021/07/15 03:45:14;;;;;;;22.80;17.00;;;;;;;25.57;56.88;94974.53;5030654;28;20211;-71
2021/07/15 03:47:41;;;;;;;21.90;16.57;;;;;;;25.37;56.65;94958.66;5029699;28;20204;-71
2021/07/15 03:50:10;;;;;;;22.77;15.37;;;;;;;25.54;56.33;94963.72;5029541;28;20201;-72
2021/07/15 03:52:38;;;;;;;24.30;16.10;;;;;;;25.52;56.57;94963.28;5026580;28;20541;-68
2021/07/15 03:55:07;;;;;;;20.77;16.27;;;;;;;25.79;55.77;94971.22;5021027;28;20228;-71
2021/07/15 03:57:35;;;;;;;19.53;16.00;;;;;;;25.93;55.82;94968.03;5026187;28;20204;-72
2021/07/15 04:00:04;;;;;;;26.67;16.90;;;;;;;25.73;56.17;94972.59;5029471;28;20254;-69
2021/07/15 04:02:40;;;;;;;21.97;19.13;;;;;;;25.71;56.25;94968.72;5027783;28;20291;-71
2021/07/15 04:05:08;;;;;;;24.73;18.37;;;;;;;25.85;55.71;94969.03;5029224;28;20633;-73
2021/07/15 04:07:36;;;;;;;20.10;17.57;;;;;;;25.84;55.88;94968.25;5018455;28;20924;-69
2021/07/15 04:10:03;;;;;;;23.93;17.93;;;;;;;25.96;55.67;94970.06;5028854;28;20193;-71
2021/07/15 04:12:32;;;;;;;27.37;19.73;;;;;;;25.87;56.08;94972.94;5029603;28;20204;-70
2021/07/15 04:15:09;;;;;;;24.20;18.87;;;;;;;26.08;55.23;94967.25;5016566;28;20193;-70
2021/07/15 04:17:48;;;;;;;24.00;19.67;;;;;;;26.06;55.53;94968.75;5030002;28;20193;-70
2021/07/15 04:20:18;;;;;;;23.47;20.00;;;;;;;26.11;55.32;94966.59;5029136;28;20308;-71
2021/07/15 04:22:48;;;;;;;25.17;18.53;;;;;;;25.82;56.26;94964.38;5016906;28;20198;-70
2021/07/15 04:25:19;;;;;;;24.87;19.47;;;;;;;25.93;55.69;94962.69;5010131;28;20248;-71
2021/07/15 04:27:49;;;;;;;28.97;21.77;;;;;;;26.19;55.72;94954.06;5023855;28;20205;-67
2021/07/15 04:30:17;;;;;;;28.27;22.23;;;;;;;26.12;55.06;94961.97;5023241;28;20205;-66
2021/07/15 04:33:04;;;;;;;26.30;22.67;;;;;;;26.28;54.73;94960.78;5010732;28;20269;-69
2021/07/15 04:35:34;;;;;;;26.70;22.47;;;;;;;26.19;54.66;94965.59;5025412;28;20655;-71
2021/07/15 04:38:03;;;;;;;28.93;23.30;;;;;;;26.19;55.18;94962.91;5029038;28;20238;-70
2021/07/15 04:40:32;;;;;;;26.20;20.40;;;;;;;26.19;55.11;94954.06;5028198;28;20231;-70
2021/07/15 04:43:04;;;;;;;27.37;19.47;;;;;;;26.28;54.88;94957.31;5033232;28;20312;-72
2021/07/15 04:45:33;;;;;;;27.07;19.80;;;;;;;26.31;54.57;94957.41;5032543;28;20585;-72
2021/07/15 04:48:00;;;;;;;28.93;23.03;;;;;;;26.17;55.25;94959.03;5016772;28;20601;-72
2021/07/15 04:50:31;;;;;;;68.77;56.63;;;;;;;26.07;55.53;94959.56;5025432;28;20197;-73
2021/07/15 04:53:08;;;;;;;35.07;28.27;;;;;;;26.18;55.03;94966.72;5027884;28;20686;-72
2021/07/15 04:55:36;;;;;;;24.27;18.00;;;;;;;26.29;54.61;94956.97;5029552;28;20220;-71
2021/07/15 04:58:05;;;;;;;35.20;17.37;;;;;;;26.54;53.96;94974.38;5010322;28;20563;-70
2021/07/15 05:00:34;;;;;;;19.63;15.40;;;;;;;26.32;54.93;94964.34;5022434;28;20255;-72
2021/07/15 05:03:21;;;;;;;32.33;26.70;;;;;;;26.23;55.14;94963.75;5029577;28;20983;-71
2021/07/15 05:05:48;;;;;;;74.13;66.23;;;;;;;26.17;55.62;94965.16;5028866;28;20271;-71
2021/07/15 05:08:15;;;;;;;40.47;28.60;;;;;;;26.28;55.24;94970.75;5015992;28;20662;-72
2021/07/15 05:10:42;;;;;;;26.17;19.33;;;;;;;26.08;55.25;94964.59;5029160;28;20197;-72
2021/07/15 05:13:10;;;;;;;29.27;16.97;;;;;;;26.21;54.54;94971.38;5029728;28;20586;-70
2021/07/15 05:15:38;;;;;;;27.23;16.40;;;;;;;26.35;54.36;94971.69;5031529;28;21921;-71
2021/07/15 05:18:06;;;;;;;23.77;16.30;;;;;;;26.32;54.65;94977.75;5034504;28;20326;-71
2021/07/15 05:20:32;;;;;;;24.17;17.90;;;;;;;26.18;54.95;94966.72;5029055;28;20217;-70
2021/07/15 05:23:02;;;;;;;27.37;19.10;;;;;;;26.26;55.02;94979.16;5034515;28;20217;-70
2021/07/15 05:25:31;;;;;;;24.10;17.20;;;;;;;26.19;54.89;94968.28;5033425;28;20185;-71
2021/07/15 05:27:59;;;;;;;22.23;16.97;;;;;;;26.01;55.47;94983.97;5023276;28;20189;-69
2021/07/15 05:30:26;;;;;;;29.50;16.60;;;;;;;25.99;55.13;94985.44;5026321;28;20214;-70
2021/07/15 05:32:53;;;;;;;23.40;16.30;;;;;;;26.15;55.28;94988.91;5026330;28;20182;-71
2021/07/15 05:35:20;;;;;;;21.77;15.60;;;;;;;26.16;55.25;94971.66;5033246;28;20197;-71
2021/07/15 05:37:47;;;;;;;21.40;14.97;;;;;;;26.06;54.47;94984.88;5033253;28;20550;-69
2021/07/15 05:40:15;;;;;;;27.03;16.37;;;;;;;26.02;54.92;94980.16;5033967;28;20243;-69
2021/07/15 05:42:41;;;;;;;24.50;16.60;;;;;;;26.28;54.14;94982.28;5034757;28;20227;-70
2021/07/15 05:45:09;;;;;;;22.00;15.80;;;;;;;26.28;53.80;94968.84;5034744;28;20205;-70
2021/07/15 05:47:36;;;;;;;19.07;16.27;;;;;;;26.36;53.68;94973.25;5033894;28;20196;-69
2021/07/15 05:50:05;;;;;;;23.27;15.60;;;;;;;26.38;53.28;94978.25;5033415;28;20194;-70
2021/07/15 05:52:32;;;;;;;21.30;15.20;;;;;;;26.35;53.34;94977.06;5033854;28;20199;-71
2021/07/15 05:55:04;;;;;;;19.93;15.20;;;;;;;26.07;53.87;94970.31;5032268;28;20193;-70
2021/07/15 05:57:33;;;;;;;19.37;15.63;;;;;;;26.38;53.27;94981.75;5030988;28;20193;-70
2021/07/15 06:00:01;;;;;;;18.37;14.97;;;;;;;26.61;53.10;94965.66;5020141;28;20220;-70
2021/07/15 06:02:30;;;;;;;21.23;15.00;;;;;;;26.46;51.52;94978.03;5018060;28;20213;-71
2021/07/15 06:04:57;;;;;;;17.87;15.07;;;;;;;26.59;51.89;94981.38;5019533;28;20255;-71
2021/07/15 06:07:24;;;;;;;21.37;14.33;;;;;;;26.22;52.64;94977.53;5019901;28;20196;-70
2021/07/15 06:09:51;;;;;;;18.83;13.80;;;;;;;26.60;52.08;94972.19;5031017;28;20654;-70
2021/07/15 06:12:18;;;;;;;19.43;13.33;;;;;;;26.34;51.84;94959.38;5021611;28;20221;-70
2021/07/15 06:14:46;;;;;;;19.27;13.63;;;;;;;26.67;51.37;94962.34;5026584;28;20201;-69
2021/07/15 06:17:14;;;;;;;19.67;13.00;;;;;;;26.85;51.21;94963.50;5013415;28;20205;-70
2021/07/15 06:19:41;;;;;;;23.20;14.70;;;;;;;26.81;52.05;94967.25;5026814;28;20231;-70
2021/07/15 06:22:08;;;;;;;18.27;13.40;;;;;;;26.87;50.82;94960.44;5021326;28;20660;-69
2021/07/15 06:24:35;;;;;;;19.83;13.60;;;;;;;26.81;50.70;94962.66;5031998;28;20284;-70
2021/07/15 06:27:03;;;;;;;22.30;13.40;;;;;;;27.02;49.77;94954.19;5031751;28;20608;-69
2021/07/15 06:29:30;;;;;;;17.50;13.93;;;;;;;27.01;50.43;94960.69;5033151;28;20197;-71
2021/07/15 06:31:57;;;;;;;18.10;13.83;;;;;;;26.65;50.14;94951.19;5034101;28;20200;-70
2021/07/15 06:34:26;;;;;;;19.87;12.37;;;;;;;26.54;50.05;94957.47;5034323;28;20266;-69
2021/07/15 06:36:53;;;;;;;17.37;13.90;;;;;;;27.05;49.74;94950.78;5033199;28;20311;-70
2021/07/15 06:39:20;;;;;;;21.50;12.67;;;;;;;27.06;49.89;94948.88;5017137;28;20212;-70
2021/07/15 06:41:50;;;;;;;18.90;13.30;;;;;;;27.01;49.30;94956.09;5032162;28;20224;-71
2021/07/15 06:44:20;;;;;;;20.77;13.87;;;;;;;27.27;48.92;94947.31;5031587;28;20194;-70
2021/07/15 06:46:49;;;;;;;21.30;14.37;;;;;;;27.45;49.58;94943.03;5031168;28;20325;-70
2021/07/15 06:49:18;;;;;;;18.13;13.30;;;;;;;27.46;49.70;94943.81;5031454;28;20288;-71
2021/07/15 06:51:45;;;;;;;22.13;13.83;;;;;;;27.54;48.52;94940.09;5031651;28;20193;-69
2021/07/15 06:54:12;;;;;;;16.47;13.20;;;;;;;27.45;47.50;94942.25;5031435;28;20197;-69
2021/07/15 06:56:42;;;;;;;17.63;12.17;;;;;;;27.61;47.68;94945.59;5031672;28;20691;-70
2021/07/15 06:59:09;;;;;;;20.03;13.27;;;;;;;27.83;47.36;94939.38;5031732;28;20335;-70
2021/07/15 07:01:35;;;;;;;24.07;12.53;;;;;;;27.71;47.49;94936.91;5026747;28;20194;-69
2021/07/15 07:04:03;;;;;;;18.07;12.73;;;;;;;27.55;47.03;94936.28;5024597;28;20189;-70
2021/07/15 07:06:30;;;;;;;14.33;11.90;;;;;;;27.67;47.73;94928.78;5017307;28;20525;-69
2021/07/15 07:08:57;;;;;;;18.20;11.37;;;;;;;27.85;46.95;94918.25;5031419;28;20222;-70
2021/07/15 07:11:23;;;;;;;15.90;12.23;;;;;;;28.03;46.38;94930.06;5013125;28;20194;-71
2021/07/15 07:13:50;;;;;;;14.10;11.97;;;;;;;27.97;47.28;94920.75;5021222;28;20651;-70
2021/07/15 07:16:17;;;;;;;14.63;10.77;;;;;;;27.96;47.40;94929.97;5030811;28;20259;-70
2021/07/15 07:18:45;;;;;;;14.27;11.40;;;;;;;28.21;46.27;94925.69;5023098;28;20197;-70
2021/07/15 07:21:20;;;;;;;17.33;11.80;;;;;;;27.99;46.55;94913.09;5011238;28;20193;-70
2021/07/15 07:23:47;;;;;;;13.77;12.37;;;;;;;28.20;46.83;94918.75;5011473;28;20190;-72
2021/07/15 07:26:14;;;;;;;17.83;12.97;;;;;;;28.06;45.70;94913.19;5024714;28;20208;-70
2021/07/15 07:28:41;;;;;;;31.90;25.23;;;;;;;28.27;45.88;94913.44;5017910;28;20209;-70
2021/07/15 07:31:08;;;;;;;26.03;23.13;;;;;;;28.17;45.49;94919.50;5018796;28;20670;-70
2021/07/15 07:33:37;;;;;;;19.87;12.77;;;;;;;28.20;46.01;94907.19;5029700;28;20193;-71
2021/07/15 07:36:04;;;;;;;19.37;14.53;;;;;;;28.26;45.83;94903.03;5016887;28;20219;-70
2021/07/15 07:38:33;;;;;;;16.30;12.37;;;;;;;28.31;45.75;94895.41;5031900;28;20194;-70
2021/07/15 07:40:59;;;;;;;14.67;11.57;;;;;;;28.29;46.52;94910.38;5032968;28;20268;-70
2021/07/15 07:43:29;;;;;;;15.93;11.97;;;;;;;28.61;45.17;94898.84;5036785;28;20215;-71
2021/07/15 07:45:58;;;;;;;15.77;11.87;;;;;;;28.57;45.67;94906.13;5032959;28;20251;-71
2021/07/15 07:48:44;;;;;;;17.20;12.17;;;;;;;28.65;44.99;94902.34;5032433;28;20189;-71
2021/07/15 07:51:12;;;;;;;15.33;11.60;;;;;;;28.77;44.92;94899.41;5031916;28;20197;-70
2021/07/15 07:53:41;;;;;;;20.27;11.90;;;;;;;28.63;44.93;94899.25;5033015;28;20205;-71
2021/07/15 07:56:09;;;;;;;20.17;11.83;;;;;;;28.81;44.86;94894.81;5030818;28;20676;-71
2021/07/15 07:58:38;;;;;;;17.93;12.30;;;;;;;28.82;44.54;94874.03;5031250;28;20310;-70
2021/07/15 08:01:05;;;;;;;20.40;11.57;;;;;;;28.79;44.62;94890.94;5030954;28;20734;-70
2021/07/15 08:03:32;;;;;;;18.90;11.73;;;;;;;29.03;44.49;94887.72;5030407;28;20201;-71
2021/07/15 08:06:00;;;;;;;17.73;10.97;;;;;;;28.96;44.47;94893.81;5030000;28;20238;-70
2021/07/15 08:08:28;;;;;;;15.00;11.50;;;;;;;29.02;44.15;94888.84;5030418;28;20284;-69
2021/07/15 08:10:55;;;;;;;13.97;12.47;;;;;;;29.20;45.13;94883.63;5030061;28;20224;-71
2021/07/15 08:13:22;;;;;;;18.27;12.13;;;;;;;29.17;44.44;94874.38;5030427;28;20280;-70
2021/07/15 08:15:50;;;;;;;17.60;12.43;;;;;;;29.25;44.79;94877.91;5031027;28;20201;-70
2021/07/15 08:18:19;;;;;;;19.20;12.67;;;;;;;29.33;43.86;94879.50;5030208;28;20231;-72
2021/07/15 08:20:46;;;;;;;17.97;12.97;;;;;;;29.47;44.35;94888.47;5029652;28;20266;-71
2021/07/15 08:23:14;;;;;;;15.17;13.57;;;;;;;29.42;44.06;94875.31;5029848;28;20670;-71
2021/07/15 08:25:42;;;;;;;14.57;12.60;;;;;;;29.48;44.26;94873.06;5029803;28;20201;-70
2021/07/15 08:28:09;;;;;;;14.83;12.17;;;;;;;29.59;43.56;94874.69;5029890;28;20192;-70
2021/07/15 08:30:36;;;;;;;24.07;12.17;;;;;;;29.38;44.30;94879.91;5029354;28;20691;-70
2021/07/15 08:33:04;;;;;;;15.90;12.10;;;;;;;29.76;43.88;94873.28;5015888;28;20193;-72
2021/07/15 08:35:32;;;;;;;18.13;12.57;;;;;;;29.76;43.13;94873.28;5029309;28;20197;-69
2021/07/15 08:38:00;;;;;;;18.37;12.27;;;;;;;29.82;43.34;94867.13;5029844;28;20832;-70
2021/07/15 08:40:28;;;;;;;15.53;12.23;;;;;;;29.91;43.47;94872.19;5028733;28;20248;-71
2021/07/15 08:42:57;;;;;;;15.77;12.83;;;;;;;30.03;43.04;94876.50;5030228;28;20653;-71
2021/07/15 08:45:24;;;;;;;16.67;12.00;;;;;;;29.89;42.54;94863.69;5029808;28;20194;-70
2021/07/15 08:47:55;;;;;;;17.30;12.70;;;;;;;30.06;42.91;94849.50;5029719;28;20196;-70
2021/07/15 08:50:22;;;;;;;16.63;11.73;;;;;;;30.29;43.20;94849.97;5035144;28;20228;-69
2021/07/15 08:52:49;;;;;;;18.27;12.57;;;;;;;30.29;42.44;94858.09;5036734;28;20200;-70
2021/07/15 08:55:22;;;;;;;15.83;12.53;;;;;;;30.40;41.87;94848.09;5037527;28;20672;-70
2021/07/15 08:57:49;;;;;;;20.63;11.97;;;;;;;30.32;42.67;94840.34;5022055;28;20193;-70
2021/07/15 09:00:20;;;;;;;16.10;12.20;;;;;;;30.51;42.98;94848.91;5018568;28;20235;-69
2021/07/15 09:02:47;;;;;;;19.43;12.37;;;;;;;30.51;41.55;94854.31;5034963;28;20205;-69
2021/07/15 09:05:15;;;;;;;15.23;11.67;;;;;;;30.65;41.75;94858.97;5037688;28;20208;-70
2021/07/15 09:07:44;;;;;;;13.47;12.13;;;;;;;30.82;40.89;94864.44;5022566;28;20249;-70
2021/07/15 09:10:13;;;;;;;19.93;13.17;;;;;;;30.73;41.99;94849.72;5037974;28;20185;-70
2021/07/15 09:12:43;;;;;;;19.40;12.27;;;;;;;30.73;41.72;94841.59;5036547;28;20205;-72
2021/07/15 09:15:14;;;;;;;13.87;12.43;;;;;;;30.82;41.32;94840.09;5024182;28;20208;-72
2021/07/15 09:17:42;;;;;;;15.93;12.80;;;;;;;30.84;41.23;94848.59;5037534;28;20280;-71
2021/07/15 09:20:23;;;;;;;15.97;12.60;;;;;;;31.26;42.29;94845.13;5021018;28;20212;-70
2021/07/15 09:23:05;;;;;;;21.70;12.90;;;;;;;31.49;40.75;94842.06;5023339;28;20236;-70
2021/07/15 09:25:39;;;;;;;14.07;11.17;;;;;;;31.53;40.15;94842.84;5015593;28;20198;-71
2021/07/15 09:28:12;;;;;;;16.30;12.13;;;;;;;31.48;40.90;94829.66;5031232;28;20686;-71
2021/07/15 09:30:41;;;;;;;15.17;12.30;;;;;;;31.45;40.65;94835.88;5033857;28;20284;-71
2021/07/15 09:33:13;;;;;;;15.47;11.37;;;;;;;31.44;40.03;94831.63;5035946;28;20217;-71
2021/07/15 09:35:42;;;;;;;24.33;13.70;;;;;;;31.63;40.54;94823.06;5035285;28;20288;-70
2021/07/15 09:38:19;;;;;;;22.23;12.97;;;;;;;31.64;39.18;94838.16;5037691;28;20207;-69
2021/07/15 09:40:51;;;;;;;18.53;12.57;;;;;;;31.94;40.12;94822.22;5036628;28;20224;-70
2021/07/15 09:43:29;;;;;;;20.10;12.07;;;;;;;32.00;40.00;94812.53;5035745;28;20575;-71
2021/07/15 09:45:58;;;;;;;14.87;11.90;;;;;;;32.13;39.92;94819.06;5035150;28;20221;-71
2021/07/15 09:48:27;;;;;;;15.33;12.07;;;;;;;32.24;39.12;94824.44;5035980;28;20217;-71
2021/07/15 09:50:59;;;;;;;16.00;11.57;;;;;;;32.27;38.70;94821.72;5034898;28;20216;-70
2021/07/15 09:53:33;;;;;;;15.87;11.37;;;;;;;32.28;38.27;94812.41;5026142;28;20283;-70
2021/07/15 09:56:20;;;;;;;13.47;11.97;;;;;;;32.01;38.99;94822.19;5032277;28;20193;-70
2021/07/15 09:58:49;;;;;;;18.60;11.93;;;;;;;32.31;38.84;94817.03;5023555;28;20233;-72
2021/07/15 10:01:20;;;;;;;20.30;11.77;;;;;;;32.46;38.44;94821.22;5025760;28;20222;-71
2021/07/15 10:03:50;;;;;;;15.03;11.63;;;;;;;32.41;38.37;94821.63;5024268;28;20686;-71
2021/07/15 10:06:18;;;;;;;13.00;10.90;;;;;;;32.42;37.51;94812.38;5032086;28;20201;-71
2021/07/15 10:08:51;;;;;;;17.53;11.30;;;;;;;32.50;38.86;94821.25;5032711;28;20251;-70
2021/07/15 10:11:27;;;;;;;17.67;11.30;;;;;;;32.33;37.74;94814.72;5031879;28;20209;-71
2021/07/15 10:14:05;;;;;;;13.43;10.83;;;;;;;32.66;37.33;94806.00;5031866;28;20193;-71
2021/07/15 10:16:38;;;;;;;18.67;11.50;;;;;;;32.74;37.68;94795.88;5027723;28;20194;-72
2021/07/15 10:19:16;;;;;;;15.90;11.83;;;;;;;32.22;37.16;94795.00;5024073;28;20242;-72
2021/07/15 10:21:43;;;;;;;20.93;11.80;;;;;;;32.27;37.04;94801.94;5031875;28;20212;-72
2021/07/15 10:24:29;;;;;;;14.33;11.10;;;;;;;32.48;37.33;94794.50;5021511;28;20205;-70
2021/07/15 10:27:00;;;;;;;13.33;11.17;;;;;;;32.55;39.04;94788.25;5031514;28;20227;-70
2021/07/15 10:29:27;;;;;;;17.87;11.20;;;;;;;32.75;37.92;94781.94;5031242;28;20197;-71
2021/07/15 10:31:54;;;;;;;13.13;10.30;;;;;;;33.20;37.49;94779.25;5032158;28;20185;-71
2021/07/15 10:34:22;;;;;;;18.30;10.60;;;;;;;33.11;37.32;94770.78;5026843;28;20296;-72
2021/07/15 10:36:53;;;;;;;21.77;11.80;;;;;;;33.25;37.15;94782.28;5032014;28;20196;-71
2021/07/15 10:39:23;;;;;;;18.23;10.87;;;;;;;33.37;36.33;94773.66;5031136;28;20619;-71
2021/07/15 10:41:53;;;;;;;13.00;10.53;;;;;;;33.27;36.01;94769.09;5032180;28;20233;-70
2021/07/15 10:44:21;;;;;;;15.67;10.27;;;;;;;33.60;36.14;94770.34;5031100;28;20271;-70
2021/07/15 10:46:50;;;;;;;18.87;10.77;;;;;;;33.45;34.66;94768.97;5031960;28;20190;-71
2021/07/15 10:49:22;;;;;;;16.27;10.40;;;;;;;33.80;35.31;94768.56;5031250;28;20705;-70
2021/07/15 10:51:52;;;;;;;12.17;10.83;;;;;;;33.75;35.58;94760.84;5031934;28;20251;-71
2021/07/15 10:54:20;;;;;;;17.43;10.87;;;;;;;33.85;35.69;94768.09;5030856;28;20196;-71
2021/07/15 10:56:48;;;;;;;14.93;10.17;;;;;;;33.92;34.10;94770.75;5032120;28;20200;-72
2021/07/15 10:59:29;;;;;;;18.20;10.30;;;;;;;33.92;33.47;94773.47;5029259;28;20236;-72
2021/07/15 11:02:16;;;;;;;15.27;10.13;;;;;;;33.91;33.49;94763.75;5021551;28;20229;-71
2021/07/15 11:04:44;;;;;;;17.60;10.57;;;;;;;33.84;32.83;94755.69;5031470;28;20201;-71
2021/07/15 11:07:19;;;;;;;17.03;10.67;;;;;;;34.23;33.62;94758.72;5031679;28;20853;-72
2021/07/15 11:09:47;;;;;;;17.43;10.47;;;;;;;34.42;33.12;94760.78;5016551;28;20193;-69
2021/07/15 11:12:35;;;;;;;14.97;10.13;;;;;;;34.09;32.71;94753.47;5029203;28;20193;-71
2021/07/15 11:15:10;;;;;;;17.07;11.27;;;;;;;34.22;32.68;94754.44;5030651;28;20682;-72
2021/07/15 11:17:43;;;;;;;21.87;10.70;;;;;;;34.23;33.00;94747.84;5029784;28;20231;-72
2021/07/15 11:20:31;;;;;;;14.17;11.20;;;;;;;34.43;33.04;94747.94;5016594;28;20737;-71
2021/07/15 11:23:01;;;;;;;19.70;10.53;;;;;;;34.42;32.12;94749.91;5017483;28;20210;-71
2021/07/15 11:25:28;;;;;;;13.50;10.60;;;;;;;34.31;32.40;94752.00;5031001;28;20300;-70
2021/07/15 11:28:02;;;;;;;11.77;10.50;;;;;;;34.32;33.04;94742.66;5031434;28;20293;-71
2021/07/15 11:30:32;;;;;;;14.87;11.07;;;;;;;34.33;33.00;94741.47;5019083;28;20204;-73
2021/07/15 11:33:23;;;;;;;19.33;11.07;;;;;;;33.87;32.46;94741.28;5032055;28;20212;-72